createdAt,value
2023-05-06T00:03:23.165Z,12.13
2023-05-06T00:06:49.923Z,12.32
2023-05-06T00:10:14.943Z,12.31
2023-05-06T00:13:42.065Z,12.37
2023-05-06T00:17:06.988Z,12.31
2023-05-06T00:20:32.757Z,12.13
2023-05-06T00:23:58.826Z,12.17
2023-05-06T00:27:24.548Z,12.24
2023-05-06T00:30:52.028Z,12.23
2023-05-06T00:34:18.874Z,12.14
2023-05-06T00:37:44.386Z,12.19
2023-05-06T00:41:09.620Z,12.49
2023-05-06T00:44:35.276Z,12.54
2023-05-06T00:48:01.723Z,12.58
2023-05-06T00:51:26.205Z,12.54
2023-05-06T00:54:52.243Z,13.01
2023-05-06T00:58:17.738Z,13.12
2023-05-06T01:01:43.246Z,12.77
2023-05-06T01:05:10.952Z,12.57
2023-05-06T01:08:39.282Z,12.77
2023-05-06T01:12:07.513Z,12.31
2023-05-06T01:15:36.462Z,12.18
2023-05-06T01:19:02.042Z,12.17
2023-05-06T01:22:29.149Z,12.04
2023-05-06T01:25:55.888Z,12.01
2023-05-06T01:29:22.673Z,12.03
2023-05-06T01:32:53.336Z,11.85
2023-05-06T01:36:22.615Z,11.96
2023-05-06T01:39:49.911Z,12.02
2023-05-06T01:43:17.597Z,11.98
2023-05-06T01:46:44.129Z,11.82
2023-05-06T01:50:12.118Z,11.68
2023-05-06T01:53:37.848Z,11.99
2023-05-06T01:57:05.023Z,11.80
2023-05-06T02:00:34.125Z,11.68
2023-05-06T02:04:00.417Z,11.52
2023-05-06T02:07:26.203Z,11.53
2023-05-06T02:10:52.546Z,11.38
2023-05-06T02:14:19.710Z,11.78
2023-05-06T02:17:47.973Z,11.26
2023-05-06T02:21:13.743Z,11.27
2023-05-06T02:24:40.172Z,11.49
2023-05-06T02:28:05.841Z,11.18
2023-05-06T02:31:30.742Z,11.20
2023-05-06T02:34:57.042Z,11.52
2023-05-06T02:38:22.670Z,11.84
2023-05-06T02:41:48.120Z,11.66
2023-05-06T02:45:16.100Z,11.53
2023-05-06T02:48:43.484Z,11.60
2023-05-06T02:52:11.573Z,11.69
2023-05-06T02:55:37.052Z,11.51
2023-05-06T02:59:04.367Z,11.54
2023-05-06T03:02:30.046Z,11.58
2023-05-06T03:05:57.047Z,11.72
2023-05-06T03:09:23.629Z,11.64
2023-05-06T03:12:49.953Z,11.70
2023-05-06T03:16:16.057Z,11.82
2023-05-06T03:19:45.392Z,11.63
2023-05-06T03:23:11.287Z,11.56
2023-05-06T03:26:39.446Z,11.33
2023-05-06T03:30:06.164Z,11.36
2023-05-06T03:33:31.474Z,11.31
2023-05-06T03:36:56.639Z,11.25
2023-05-06T03:40:24.234Z,11.34
2023-05-06T03:43:50.704Z,11.40
2023-05-06T03:47:18.666Z,11.59
2023-05-06T03:50:44.672Z,11.65
2023-05-06T03:54:11.756Z,11.60
2023-05-06T03:57:37.546Z,11.50
2023-05-06T04:01:06.302Z,11.55
2023-05-06T04:04:31.691Z,11.57
2023-05-06T04:07:56.972Z,11.73
2023-05-06T04:11:23.606Z,11.82
2023-05-06T04:14:48.616Z,11.88
2023-05-06T04:18:19.768Z,11.91
2023-05-06T04:21:44.955Z,12.05
2023-05-06T04:25:12.831Z,12.14
2023-05-06T04:28:38.505Z,12.36
2023-05-06T04:32:05.503Z,12.55
2023-05-06T04:35:34.666Z,12.54
2023-05-06T04:39:00.665Z,12.67
2023-05-06T04:42:26.712Z,12.70
2023-05-06T04:45:52.337Z,12.81
2023-05-06T04:49:20.979Z,13.20
2023-05-06T04:52:46.809Z,13.28
2023-05-06T04:56:12.682Z,13.45
2023-05-06T04:59:39.344Z,13.48
2023-05-06T05:03:04.680Z,13.76
2023-05-06T05:06:30.659Z,13.98
2023-05-06T05:09:57.943Z,14.20
2023-05-06T05:13:23.501Z,14.52
2023-05-06T05:16:52.701Z,14.65
2023-05-06T05:20:18.186Z,14.77
2023-05-06T05:23:43.297Z,14.82
2023-05-06T05:27:10.044Z,14.93
2023-05-06T05:30:35.549Z,14.96
2023-05-06T05:34:01.686Z,15.04
2023-05-06T05:37:26.906Z,15.08
2023-05-06T05:40:52.732Z,15.12
2023-05-06T05:44:21.209Z,15.25
2023-05-06T05:47:47.968Z,15.31
2023-05-06T05:51:13.996Z,15.53
2023-05-06T05:54:41.356Z,15.68
2023-05-06T05:58:08.851Z,15.67
2023-05-06T06:01:36.894Z,15.63
2023-05-06T06:05:03.444Z,15.77
2023-05-06T06:08:30.271Z,15.68
2023-05-06T06:11:56.632Z,16.11
2023-05-06T06:15:22.483Z,16.22
2023-05-06T06:18:51.108Z,16.55
2023-05-06T06:22:16.268Z,16.71
2023-05-06T06:25:42.082Z,16.97
2023-05-06T06:29:07.360Z,17.00
2023-05-06T06:32:33.549Z,17.13
2023-05-06T06:36:00.819Z,17.44
2023-05-06T06:39:26.779Z,17.51
2023-05-06T06:42:52.382Z,18.00
2023-05-06T06:46:21.682Z,18.04
2023-05-06T06:49:46.034Z,18.22
2023-05-06T06:53:13.416Z,18.48
2023-05-06T06:56:39.432Z,18.57
2023-05-06T07:00:05.767Z,18.73
2023-05-06T07:03:30.969Z,18.84
2023-05-06T07:06:57.318Z,19.35
2023-05-06T07:10:25.373Z,19.47
2023-05-06T07:13:50.513Z,19.47
2023-05-06T07:17:16.502Z,19.49
2023-05-06T07:20:41.976Z,19.96
2023-05-06T07:24:06.859Z,20.07
2023-05-06T07:27:33.905Z,20.35
2023-05-06T07:30:58.699Z,20.58
2023-05-06T07:34:24.096Z,20.73
2023-05-06T07:37:49.649Z,20.78
2023-05-06T07:41:17.123Z,20.61
2023-05-06T07:44:44.371Z,20.75
2023-05-06T07:48:10.568Z,20.93
2023-05-06T07:51:35.972Z,20.96
2023-05-06T07:55:01.734Z,20.87
2023-05-06T07:58:25.593Z,21.36
2023-05-06T08:01:51.550Z,21.40
2023-05-06T08:05:16.149Z,21.81
2023-05-06T08:08:40.025Z,22.08
2023-05-06T08:12:04.999Z,22.44
2023-05-06T08:15:28.872Z,22.58
2023-05-06T08:19:03.685Z,22.71
2023-05-06T08:22:28.029Z,22.61
2023-05-06T08:25:52.343Z,22.98
2023-05-06T08:29:16.669Z,22.74
2023-05-06T08:32:41.339Z,22.90
2023-05-06T08:36:09.302Z,23.45
2023-05-06T08:39:34.839Z,23.59
2023-05-06T08:42:59.821Z,23.25
2023-05-06T08:46:24.235Z,22.99
2023-05-06T08:49:48.715Z,23.52
2023-05-06T08:53:17.431Z,23.78
2023-05-06T08:56:44.561Z,23.00
2023-05-06T09:00:12.189Z,23.12
2023-05-06T09:03:36.453Z,23.02
2023-05-06T09:07:00.782Z,22.81
2023-05-06T09:10:27.958Z,22.69
2023-05-06T09:13:52.464Z,22.93
2023-05-06T09:17:24.510Z,24.20
2023-05-06T09:20:49.891Z,23.93
2023-05-06T09:24:14.441Z,23.68
2023-05-06T09:27:40.039Z,22.99
2023-05-06T09:31:04.274Z,23.23
2023-05-06T09:34:28.795Z,24.86
2023-05-06T09:37:53.647Z,25.56
2023-05-06T09:41:21.116Z,26.60
2023-05-06T09:44:47.138Z,26.55
2023-05-06T09:48:11.358Z,25.79
2023-05-06T09:51:35.612Z,25.02
2023-05-06T09:55:03.630Z,26.48
2023-05-06T09:58:27.642Z,27.33
2023-05-06T10:01:53.195Z,27.18
2023-05-06T10:05:18.341Z,27.61
2023-05-06T10:08:42.805Z,28.31
2023-05-06T10:12:07.453Z,28.64
2023-05-06T10:15:31.655Z,27.93
2023-05-06T10:18:58.422Z,28.52
2023-05-06T10:22:33.226Z,27.19
2023-05-06T10:26:00.121Z,26.95
2023-05-06T10:29:24.394Z,27.96
2023-05-06T10:32:49.118Z,28.49
2023-05-06T10:36:18.805Z,28.68
2023-05-06T10:39:43.726Z,27.86
2023-05-06T10:43:27.183Z,26.47
2023-05-06T10:47:02.297Z,26.58
2023-05-06T10:50:26.321Z,27.96
2023-05-06T10:54:07.194Z,28.43
2023-05-06T10:57:31.358Z,26.84
2023-05-06T11:00:56.523Z,27.09
2023-05-06T11:04:21.267Z,28.81
2023-05-06T11:07:45.762Z,28.85
2023-05-06T11:11:42.602Z,28.32
2023-05-06T11:18:46.164Z,28.70
2023-05-06T11:22:11.379Z,28.91
2023-05-06T11:25:41.715Z,29.01
2023-05-06T11:29:06.357Z,29.86
2023-05-06T11:32:31.009Z,30.34
2023-05-06T11:35:56.928Z,29.59
2023-05-06T11:39:21.334Z,30.47
2023-05-06T11:42:45.695Z,30.83
2023-05-06T11:46:10.064Z,30.57
2023-05-06T11:49:38.120Z,30.85
2023-05-06T11:53:03.987Z,30.25
2023-05-06T11:56:28.415Z,29.35
2023-05-06T11:59:55.669Z,30.49
2023-05-06T12:03:21.080Z,31.31
2023-05-06T12:06:46.265Z,30.49
2023-05-06T12:10:12.595Z,29.79
2023-05-06T12:13:38.234Z,30.36
2023-05-06T12:17:02.312Z,29.40
2023-05-06T12:20:27.626Z,29.88
2023-05-06T12:23:55.405Z,28.14
2023-05-06T12:27:34.787Z,29.85
2023-05-06T12:30:58.725Z,30.50
2023-05-06T12:34:37.652Z,29.89
2023-05-06T12:38:10.208Z,30.96
2023-05-06T12:41:39.059Z,31.66
2023-05-06T12:45:17.046Z,31.66
2023-05-06T12:48:41.858Z,30.30
2023-05-06T12:52:09.733Z,28.95
2023-05-06T12:55:34.235Z,29.41
2023-05-06T12:59:00.291Z,28.77
2023-05-06T13:02:27.088Z,28.02
2023-05-06T13:05:52.262Z,27.92
2023-05-06T13:09:16.915Z,26.58
2023-05-06T13:12:41.618Z,26.80
2023-05-06T13:16:07.141Z,27.01
2023-05-06T13:19:33.465Z,26.96
2023-05-06T13:22:57.852Z,26.89
2023-05-06T13:26:21.514Z,26.51
2023-05-06T13:29:46.304Z,26.49
2023-05-06T13:33:10.362Z,26.30
2023-05-06T13:36:36.473Z,26.29
2023-05-06T13:40:00.938Z,25.71
2023-05-06T13:43:27.048Z,25.65
2023-05-06T13:46:51.740Z,25.72
2023-05-06T13:50:16.925Z,25.74
2023-05-06T13:53:44.772Z,25.37
2023-05-06T13:57:08.820Z,25.17
2023-05-06T14:00:33.222Z,25.74
2023-05-06T14:03:57.681Z,26.12
2023-05-06T14:07:21.750Z,26.27
2023-05-06T14:10:47.916Z,26.01
2023-05-06T14:14:13.353Z,25.35
2023-05-06T14:17:39.281Z,24.90
2023-05-06T14:21:04.236Z,24.96
2023-05-06T14:24:29.792Z,24.53
2023-05-06T14:27:55.933Z,24.35
2023-05-06T14:31:20.805Z,24.39
2023-05-06T14:34:45.666Z,23.99
2023-05-06T14:38:10.561Z,23.39
2023-05-06T14:41:35.650Z,23.32
2023-05-06T14:45:03.651Z,22.88
2023-05-06T14:48:28.488Z,22.58
2023-05-06T14:51:53.529Z,22.56
2023-05-06T14:55:19.270Z,22.86
2023-05-06T14:58:45.005Z,22.07
2023-05-06T15:02:12.171Z,22.01
2023-05-06T15:05:37.878Z,21.75
2023-05-06T15:09:04.996Z,21.55
2023-05-06T15:12:30.858Z,21.78
2023-05-06T15:16:00.572Z,21.50
2023-05-06T15:19:29.003Z,21.58
2023-05-06T15:22:53.525Z,21.39
2023-05-06T15:26:19.894Z,21.33
2023-05-06T15:29:45.826Z,21.41
2023-05-06T15:33:11.041Z,20.96
2023-05-06T15:36:38.820Z,21.07
2023-05-06T15:40:06.233Z,21.08
2023-05-06T15:43:37.600Z,21.07
2023-05-06T15:47:04.368Z,21.09
2023-05-06T15:50:33.953Z,21.15
2023-05-06T15:54:00.508Z,20.98
2023-05-06T15:57:24.404Z,21.01
2023-05-06T16:00:49.516Z,21.02
2023-05-06T16:04:15.450Z,20.76
2023-05-06T16:07:41.140Z,20.72
2023-05-06T16:11:08.474Z,20.75
2023-05-06T16:14:34.066Z,20.46
2023-05-06T16:17:59.763Z,20.52
2023-05-06T16:21:24.060Z,20.66
2023-05-06T16:24:49.429Z,20.47
2023-05-06T16:28:16.326Z,20.10
2023-05-06T16:31:42.108Z,20.29
2023-05-06T16:35:07.770Z,20.26
2023-05-06T16:38:32.580Z,20.31
2023-05-06T16:41:56.764Z,20.30
2023-05-06T16:45:23.418Z,20.32
2023-05-06T16:48:48.026Z,19.90
2023-05-06T16:52:12.877Z,20.14
2023-05-06T16:55:38.478Z,19.56
2023-05-06T16:59:05.281Z,19.53
2023-05-06T17:02:32.402Z,19.29
2023-05-06T17:05:58.447Z,19.27
2023-05-06T17:09:24.664Z,19.63
2023-05-06T17:12:49.036Z,19.41
2023-05-06T17:16:14.875Z,19.38
2023-05-06T17:19:51.523Z,19.56
2023-05-06T17:23:16.580Z,19.63
2023-05-06T17:27:05.297Z,19.73
2023-05-06T17:30:29.352Z,19.76
2023-05-06T17:33:55.187Z,19.66
2023-05-06T17:37:22.111Z,19.56
2023-05-06T17:40:47.096Z,19.48
2023-05-06T17:44:11.582Z,19.18
2023-05-06T17:47:36.658Z,19.23
2023-05-06T17:51:03.994Z,19.01
2023-05-06T17:54:35.326Z,18.90
2023-05-06T17:58:00.444Z,18.88
2023-05-06T18:01:25.380Z,18.88
2023-05-06T18:04:50.786Z,18.72
2023-05-06T18:08:15.400Z,18.71
2023-05-06T18:11:42.396Z,18.61
2023-05-06T18:15:09.076Z,18.74
2023-05-06T18:18:34.613Z,18.86
2023-05-06T18:21:59.193Z,18.91
2023-05-06T18:25:23.691Z,18.70
2023-05-06T18:28:49.510Z,18.43
2023-05-06T18:32:14.397Z,18.71
2023-05-06T18:35:38.817Z,18.69
2023-05-06T18:39:05.224Z,18.84
2023-05-06T18:42:29.639Z,18.84
2023-05-06T18:45:56.240Z,18.68
2023-05-06T18:49:20.583Z,18.88
2023-05-06T18:52:45.386Z,18.41
2023-05-06T18:56:09.972Z,18.49
2023-05-06T18:59:34.667Z,18.35
2023-05-06T19:03:01.311Z,18.15
2023-05-06T19:06:26.775Z,18.40
2023-05-06T19:09:52.660Z,18.35
2023-05-06T19:13:18.404Z,18.03
2023-05-06T19:16:43.239Z,18.07
2023-05-06T19:20:11.610Z,17.98
2023-05-06T19:23:35.994Z,18.04
2023-05-06T19:27:00.760Z,18.02
2023-05-06T19:30:24.979Z,17.86
2023-05-06T19:33:49.955Z,17.71
2023-05-06T19:37:16.392Z,17.72
2023-05-06T19:40:41.216Z,17.57
2023-05-06T19:44:06.316Z,17.74
2023-05-06T19:47:32.377Z,17.80
2023-05-06T19:50:56.926Z,17.93
2023-05-06T19:54:23.089Z,17.95
2023-05-06T19:57:47.487Z,17.92
2023-05-06T20:01:11.473Z,17.93
2023-05-06T20:04:36.633Z,18.08
2023-05-06T20:08:00.838Z,18.22
2023-05-06T20:11:26.472Z,18.28
2023-05-06T20:14:51.397Z,18.19
2023-05-06T20:18:16.546Z,18.09
2023-05-06T20:21:40.750Z,18.09
2023-05-06T20:25:12.808Z,17.74
2023-05-06T20:28:43.346Z,17.86
2023-05-06T20:32:08.300Z,17.97
2023-05-06T20:35:48.618Z,17.63
2023-05-06T20:39:37.480Z,17.97
2023-05-06T20:43:01.619Z,18.06
2023-05-06T20:46:27.684Z,17.77
2023-05-06T20:49:51.538Z,17.75
2023-05-06T20:53:16.077Z,17.58
2023-05-06T20:56:40.140Z,17.56
2023-05-06T21:00:04.582Z,16.97
2023-05-06T21:03:30.747Z,17.07
2023-05-06T21:06:54.871Z,17.46
2023-05-06T21:10:20.213Z,17.53
2023-05-06T21:13:44.898Z,17.39
2023-05-06T21:17:09.640Z,17.62
2023-05-06T21:20:36.447Z,17.82
2023-05-06T21:24:00.755Z,17.78
2023-05-06T21:27:25.244Z,17.49
2023-05-06T21:30:49.877Z,17.80
2023-05-06T21:34:15.772Z,17.38
2023-05-06T21:37:41.647Z,17.30
2023-05-06T21:41:09.113Z,17.24
2023-05-06T21:44:32.829Z,17.14
2023-05-06T21:47:57.310Z,16.93
2023-05-06T21:51:21.704Z,16.83
2023-05-06T21:54:49.497Z,16.86
2023-05-06T21:58:13.836Z,16.76
2023-05-06T22:01:38.369Z,16.94
2023-05-06T22:05:03.088Z,16.86
2023-05-06T22:08:27.195Z,16.86
2023-05-06T22:11:52.848Z,16.75
2023-05-06T22:15:17.881Z,16.16
2023-05-06T22:18:43.331Z,16.49
2023-05-06T22:22:07.087Z,16.17
2023-05-06T22:25:32.113Z,16.44
2023-05-06T22:28:59.320Z,16.57
2023-05-06T22:32:23.752Z,16.36
2023-05-06T22:35:49.435Z,17.08
2023-05-06T22:39:14.166Z,16.65
2023-05-06T22:42:38.422Z,16.37
2023-05-06T22:46:05.659Z,16.84
2023-05-06T22:49:30.374Z,17.28
2023-05-06T22:52:54.815Z,17.11
2023-05-06T22:56:20.344Z,17.00
2023-05-06T22:59:45.171Z,16.66
2023-05-06T23:03:10.919Z,17.18
2023-05-06T23:06:35.145Z,17.00
2023-05-06T23:10:00.054Z,16.84
2023-05-06T23:13:24.845Z,16.40
2023-05-06T23:16:48.920Z,16.35
2023-05-06T23:20:17.254Z,16.54
2023-05-06T23:23:41.137Z,16.26
2023-05-06T23:27:06.671Z,15.84
2023-05-06T23:30:31.020Z,15.99
2023-05-06T23:33:55.402Z,16.05
2023-05-06T23:37:20.610Z,15.85
2023-05-06T23:40:45.572Z,15.80
2023-05-06T23:44:09.907Z,15.91
2023-05-06T23:47:34.859Z,16.00
2023-05-06T23:50:59.208Z,16.02
2023-05-06T23:54:25.660Z,16.03
2023-05-06T23:57:49.859Z,15.71
